sensor_id;sensor_type;location;lat;lon;timestamp;temperature;humidity
7676;DHT22;3880;51.464;-2.566;2022-11-20T00:01:26;8.40;99.90
7676;DHT22;3880;51.464;-2.566;2022-11-20T00:03:55;8.30;99.90
7676;DHT22;3880;51.464;-2.566;2022-11-20T00:06:25;8.30;99.90
7676;DHT22;3880;51.464;-2.566;2022-11-20T00:08:54;8.30;99.90
7676;DHT22;3880;51.464;-2.566;2022-11-20T00:11:23;8.20;99.90
7676;DHT22;3880;51.464;-2.566;2022-11-20T00:13:52;8.30;99.90
7676;DHT22;3880;51.464;-2.566;2022-11-20T00:16:21;8.20;99.90
7676;DHT22;3880;51.464;-2.566;2022-11-20T00:18:48;8.20;99.90
7676;DHT22;3880;51.464;-2.566;2022-11-20T00:21:17;8.20;99.90
7676;DHT22;3880;51.464;-2.566;2022-11-20T00:23:46;8.10;99.90
7676;DHT22;3880;51.464;-2.566;2022-11-20T00:26:14;8.10;99.90
7676;DHT22;3880;51.464;-2.566;2022-11-20T00:28:42;8.10;99.90
7676;DHT22;3880;51.464;-2.566;2022-11-20T00:31:12;8.20;99.90
7676;DHT22;3880;51.464;-2.566;2022-11-20T00:33:39;8.10;99.90
7676;DHT22;3880;51.464;-2.566;2022-11-20T00:36:08;8.20;99.90
7676;DHT22;3880;51.464;-2.566;2022-11-20T00:38:36;8.20;99.90
7676;DHT22;3880;51.464;-2.566;2022-11-20T00:41:07;8.10;99.90
7676;DHT22;3880;51.464;-2.566;2022-11-20T00:43:34;8.20;99.90
7676;DHT22;3880;51.464;-2.566;2022-11-20T00:46:04;8.10;99.90
7676;DHT22;3880;51.464;-2.566;2022-11-20T00:48:31;8.10;99.90
7676;DHT22;3880;51.464;-2.566;2022-11-20T00:50:58;8.10;99.90
7676;DHT22;3880;51.464;-2.566;2022-11-20T00:53:25;8.10;99.90
7676;DHT22;3880;51.464;-2.566;2022-11-20T00:55:54;8.20;99.90
7676;DHT22;3880;51.464;-2.566;2022-11-20T00:58:23;8.10;99.90
7676;DHT22;3880;51.464;-2.566;2022-11-20T01:00:50;8.00;99.90
7676;DHT22;3880;51.464;-2.566;2022-11-20T01:03:18;8.00;99.90
7676;DHT22;3880;51.464;-2.566;2022-11-20T01:05:45;8.00;99.90
7676;DHT22;3880;51.464;-2.566;2022-11-20T01:08:12;7.90;99.90
7676;DHT22;3880;51.464;-2.566;2022-11-20T01:10:39;8.00;99.90
7676;DHT22;3880;51.464;-2.566;2022-11-20T01:13:06;8.00;99.90
7676;DHT22;3880;51.464;-2.566;2022-11-20T01:15:52;7.90;99.90
7676;DHT22;3880;51.464;-2.566;2022-11-20T01:18:19;7.90;99.90
7676;DHT22;3880;51.464;-2.566;2022-11-20T01:20:46;7.90;99.90
7676;DHT22;3880;51.464;-2.566;2022-11-20T01:23:13;8.00;99.90
7676;DHT22;3880;51.464;-2.566;2022-11-20T01:25:40;7.90;99.90
7676;DHT22;3880;51.464;-2.566;2022-11-20T01:28:07;7.90;99.90
7676;DHT22;3880;51.464;-2.566;2022-11-20T01:30:34;8.00;99.90
7676;DHT22;3880;51.464;-2.566;2022-11-20T01:33:03;8.10;99.90
7676;DHT22;3880;51.464;-2.566;2022-11-20T01:35:30;8.00;99.90
7676;DHT22;3880;51.464;-2.566;2022-11-20T01:37:57;8.00;99.90
7676;DHT22;3880;51.464;-2.566;2022-11-20T01:40:24;8.00;99.90
7676;DHT22;3880;51.464;-2.566;2022-11-20T01:42:57;8.00;99.90
7676;DHT22;3880;51.464;-2.566;2022-11-20T01:46:05;8.00;99.90
7676;DHT22;3880;51.464;-2.566;2022-11-20T01:48:37;8.00;99.90
7676;DHT22;3880;51.464;-2.566;2022-11-20T01:51:10;8.00;99.90
7676;DHT22;3880;51.464;-2.566;2022-11-20T01:53:39;8.10;99.90
7676;DHT22;3880;51.464;-2.566;2022-11-20T01:56:09;8.10;99.90
7676;DHT22;3880;51.464;-2.566;2022-11-20T01:58:42;8.20;99.90
7676;DHT22;3880;51.464;-2.566;2022-11-20T02:01:11;8.20;99.90
7676;DHT22;3880;51.464;-2.566;2022-11-20T02:03:41;8.10;99.90
7676;DHT22;3880;51.464;-2.566;2022-11-20T02:06:13;8.10;99.90
7676;DHT22;3880;51.464;-2.566;2022-11-20T02:08:42;8.10;99.90
7676;DHT22;3880;51.464;-2.566;2022-11-20T02:11:09;8.20;99.90
7676;DHT22;3880;51.464;-2.566;2022-11-20T02:13:36;8.20;99.90
7676;DHT22;3880;51.464;-2.566;2022-11-20T02:16:14;8.10;99.90
7676;DHT22;3880;51.464;-2.566;2022-11-20T02:18:44;8.20;99.90
7676;DHT22;3880;51.464;-2.566;2022-11-20T02:21:27;8.20;99.90
7676;DHT22;3880;51.464;-2.566;2022-11-20T02:24:04;8.20;99.90
7676;DHT22;3880;51.464;-2.566;2022-11-20T02:26:34;8.20;99.90
7676;DHT22;3880;51.464;-2.566;2022-11-20T02:29:04;8.20;99.90
7676;DHT22;3880;51.464;-2.566;2022-11-20T02:31:40;8.30;99.90
7676;DHT22;3880;51.464;-2.566;2022-11-20T02:34:07;8.30;99.90
7676;DHT22;3880;51.464;-2.566;2022-11-20T02:36:35;8.30;99.90
7676;DHT22;3880;51.464;-2.566;2022-11-20T02:39:05;8.30;99.90
7676;DHT22;3880;51.464;-2.566;2022-11-20T02:41:33;8.40;99.90
7676;DHT22;3880;51.464;-2.566;2022-11-20T02:44:01;8.40;99.90
7676;DHT22;3880;51.464;-2.566;2022-11-20T02:46:29;8.20;99.90
7676;DHT22;3880;51.464;-2.566;2022-11-20T02:48:56;8.20;99.90
7676;DHT22;3880;51.464;-2.566;2022-11-20T02:51:23;8.20;99.90
7676;DHT22;3880;51.464;-2.566;2022-11-20T02:53:50;8.20;99.90
7676;DHT22;3880;51.464;-2.566;2022-11-20T02:56:29;8.30;99.90
7676;DHT22;3880;51.464;-2.566;2022-11-20T02:58:56;8.40;99.90
7676;DHT22;3880;51.464;-2.566;2022-11-20T03:01:23;8.30;99.90
7676;DHT22;3880;51.464;-2.566;2022-11-20T03:03:50;8.30;99.90
7676;DHT22;3880;51.464;-2.566;2022-11-20T03:06:20;8.30;99.90
7676;DHT22;3880;51.464;-2.566;2022-11-20T03:08:47;8.40;99.90
7676;DHT22;3880;51.464;-2.566;2022-11-20T03:11:14;8.50;99.90
7676;DHT22;3880;51.464;-2.566;2022-11-20T03:13:42;8.40;99.90
7676;DHT22;3880;51.464;-2.566;2022-11-20T03:16:12;8.40;99.90
7676;DHT22;3880;51.464;-2.566;2022-11-20T03:18:40;8.40;99.90
7676;DHT22;3880;51.464;-2.566;2022-11-20T03:21:07;8.40;99.90
7676;DHT22;3880;51.464;-2.566;2022-11-20T03:23:36;8.60;99.90
7676;DHT22;3880;51.464;-2.566;2022-11-20T03:26:15;8.60;99.90
7676;DHT22;3880;51.464;-2.566;2022-11-20T03:28:48;8.60;99.90
7676;DHT22;3880;51.464;-2.566;2022-11-20T03:31:17;8.60;99.90
7676;DHT22;3880;51.464;-2.566;2022-11-20T03:33:45;8.60;99.90
7676;DHT22;3880;51.464;-2.566;2022-11-20T03:36:14;8.60;99.90
7676;DHT22;3880;51.464;-2.566;2022-11-20T03:38:42;8.60;99.90
7676;DHT22;3880;51.464;-2.566;2022-11-20T03:41:11;8.50;99.90
7676;DHT22;3880;51.464;-2.566;2022-11-20T03:43:38;8.50;99.90
7676;DHT22;3880;51.464;-2.566;2022-11-20T03:46:07;8.40;99.90
7676;DHT22;3880;51.464;-2.566;2022-11-20T03:48:34;8.40;99.90
7676;DHT22;3880;51.464;-2.566;2022-11-20T03:51:08;8.40;99.90
7676;DHT22;3880;51.464;-2.566;2022-11-20T03:53:36;8.40;99.90
7676;DHT22;3880;51.464;-2.566;2022-11-20T03:56:03;8.40;99.90
7676;DHT22;3880;51.464;-2.566;2022-11-20T03:58:32;8.40;99.90
7676;DHT22;3880;51.464;-2.566;2022-11-20T04:01:04;8.40;99.90
7676;DHT22;3880;51.464;-2.566;2022-11-20T04:03:33;8.40;99.90
7676;DHT22;3880;51.464;-2.566;2022-11-20T04:06:05;8.50;99.90
7676;DHT22;3880;51.464;-2.566;2022-11-20T04:08:32;8.60;99.90
7676;DHT22;3880;51.464;-2.566;2022-11-20T04:11:09;8.60;99.90
7676;DHT22;3880;51.464;-2.566;2022-11-20T04:13:36;8.70;99.90
7676;DHT22;3880;51.464;-2.566;2022-11-20T04:16:04;8.70;99.90
7676;DHT22;3880;51.464;-2.566;2022-11-20T04:18:32;8.70;99.90
7676;DHT22;3880;51.464;-2.566;2022-11-20T04:20:59;8.70;99.90
7676;DHT22;3880;51.464;-2.566;2022-11-20T04:23:27;8.80;99.90
7676;DHT22;3880;51.464;-2.566;2022-11-20T04:25:54;8.80;99.90
7676;DHT22;3880;51.464;-2.566;2022-11-20T04:28:21;8.80;99.90
7676;DHT22;3880;51.464;-2.566;2022-11-20T04:30:48;8.80;99.90
7676;DHT22;3880;51.464;-2.566;2022-11-20T04:33:15;8.70;99.90
7676;DHT22;3880;51.464;-2.566;2022-11-20T04:35:45;8.80;99.90
7676;DHT22;3880;51.464;-2.566;2022-11-20T04:38:13;8.70;99.90
7676;DHT22;3880;51.464;-2.566;2022-11-20T04:40:40;8.60;99.90
7676;DHT22;3880;51.464;-2.566;2022-11-20T04:43:08;8.50;99.90
7676;DHT22;3880;51.464;-2.566;2022-11-20T04:45:35;8.40;99.90
7676;DHT22;3880;51.464;-2.566;2022-11-20T04:48:02;8.50;99.90
7676;DHT22;3880;51.464;-2.566;2022-11-20T04:50:29;8.40;99.90
7676;DHT22;3880;51.464;-2.566;2022-11-20T04:52:57;8.50;99.90
7676;DHT22;3880;51.464;-2.566;2022-11-20T04:55:24;8.60;99.90
7676;DHT22;3880;51.464;-2.566;2022-11-20T04:57:51;8.70;99.90
7676;DHT22;3880;51.464;-2.566;2022-11-20T05:00:19;8.70;99.90
7676;DHT22;3880;51.464;-2.566;2022-11-20T05:02:46;8.80;99.90
7676;DHT22;3880;51.464;-2.566;2022-11-20T05:05:13;8.70;99.90
7676;DHT22;3880;51.464;-2.566;2022-11-20T05:07:40;8.70;99.90
7676;DHT22;3880;51.464;-2.566;2022-11-20T05:10:09;8.70;99.90
7676;DHT22;3880;51.464;-2.566;2022-11-20T05:12:36;8.60;99.90
7676;DHT22;3880;51.464;-2.566;2022-11-20T05:15:04;8.50;99.90
7676;DHT22;3880;51.464;-2.566;2022-11-20T05:17:31;8.40;99.90
7676;DHT22;3880;51.464;-2.566;2022-11-20T05:19:58;8.40;99.90
7676;DHT22;3880;51.464;-2.566;2022-11-20T05:22:25;8.40;99.90
7676;DHT22;3880;51.464;-2.566;2022-11-20T05:24:52;8.30;99.90
7676;DHT22;3880;51.464;-2.566;2022-11-20T05:27:21;8.30;99.90
7676;DHT22;3880;51.464;-2.566;2022-11-20T05:29:48;8.30;99.90
7676;DHT22;3880;51.464;-2.566;2022-11-20T05:32:15;8.30;99.90
7676;DHT22;3880;51.464;-2.566;2022-11-20T05:34:44;8.30;99.90
7676;DHT22;3880;51.464;-2.566;2022-11-20T05:37:13;8.40;99.90
7676;DHT22;3880;51.464;-2.566;2022-11-20T05:39:40;8.30;99.90
7676;DHT22;3880;51.464;-2.566;2022-11-20T05:42:07;8.30;99.90
7676;DHT22;3880;51.464;-2.566;2022-11-20T05:44:53;8.40;99.90
7676;DHT22;3880;51.464;-2.566;2022-11-20T05:47:20;8.30;99.90
7676;DHT22;3880;51.464;-2.566;2022-11-20T05:49:47;8.30;99.90
7676;DHT22;3880;51.464;-2.566;2022-11-20T05:52:14;8.30;99.90
7676;DHT22;3880;51.464;-2.566;2022-11-20T05:54:41;8.30;99.90
7676;DHT22;3880;51.464;-2.566;2022-11-20T05:57:08;8.30;99.90
7676;DHT22;3880;51.464;-2.566;2022-11-20T05:59:35;8.30;99.90
7676;DHT22;3880;51.464;-2.566;2022-11-20T06:02:04;8.30;99.90
7676;DHT22;3880;51.464;-2.566;2022-11-20T06:04:32;8.10;99.90
7676;DHT22;3880;51.464;-2.566;2022-11-20T06:06:59;8.20;99.90
7676;DHT22;3880;51.464;-2.566;2022-11-20T06:09:26;8.10;99.90
7676;DHT22;3880;51.464;-2.566;2022-11-20T06:11:53;8.10;99.90
7676;DHT22;3880;51.464;-2.566;2022-11-20T06:14:20;8.10;99.90
7676;DHT22;3880;51.464;-2.566;2022-11-20T06:16:48;8.10;99.90
7676;DHT22;3880;51.464;-2.566;2022-11-20T06:19:16;8.20;99.90
7676;DHT22;3880;51.464;-2.566;2022-11-20T06:21:43;8.10;99.90
7676;DHT22;3880;51.464;-2.566;2022-11-20T06:24:11;8.10;99.90
7676;DHT22;3880;51.464;-2.566;2022-11-20T06:26:38;8.10;99.90
7676;DHT22;3880;51.464;-2.566;2022-11-20T06:29:05;8.10;99.90
7676;DHT22;3880;51.464;-2.566;2022-11-20T06:31:32;8.00;99.90
7676;DHT22;3880;51.464;-2.566;2022-11-20T06:34:03;8.00;99.90
7676;DHT22;3880;51.464;-2.566;2022-11-20T06:36:32;8.00;99.90
7676;DHT22;3880;51.464;-2.566;2022-11-20T06:39:00;7.90;99.90
7676;DHT22;3880;51.464;-2.566;2022-11-20T06:41:27;7.90;99.90
7676;DHT22;3880;51.464;-2.566;2022-11-20T06:43:55;7.80;99.90
7676;DHT22;3880;51.464;-2.566;2022-11-20T06:46:22;7.80;99.90
7676;DHT22;3880;51.464;-2.566;2022-11-20T06:48:49;7.80;99.90
7676;DHT22;3880;51.464;-2.566;2022-11-20T06:51:17;7.80;99.90
7676;DHT22;3880;51.464;-2.566;2022-11-20T06:53:45;7.70;99.90
7676;DHT22;3880;51.464;-2.566;2022-11-20T06:56:12;7.70;99.90
7676;DHT22;3880;51.464;-2.566;2022-11-20T06:58:39;7.70;99.90
7676;DHT22;3880;51.464;-2.566;2022-11-20T07:01:09;7.70;99.90
7676;DHT22;3880;51.464;-2.566;2022-11-20T07:03:37;7.70;99.90
7676;DHT22;3880;51.464;-2.566;2022-11-20T07:06:05;7.60;99.90
7676;DHT22;3880;51.464;-2.566;2022-11-20T07:08:33;7.60;99.90
7676;DHT22;3880;51.464;-2.566;2022-11-20T07:11:03;7.60;99.90
7676;DHT22;3880;51.464;-2.566;2022-11-20T07:13:31;7.50;99.90
7676;DHT22;3880;51.464;-2.566;2022-11-20T07:16:00;7.50;99.90
7676;DHT22;3880;51.464;-2.566;2022-11-20T07:18:27;7.50;99.90
7676;DHT22;3880;51.464;-2.566;2022-11-20T07:20:55;7.40;99.90
7676;DHT22;3880;51.464;-2.566;2022-11-20T07:23:22;7.40;99.90
7676;DHT22;3880;51.464;-2.566;2022-11-20T07:25:49;7.50;99.90
7676;DHT22;3880;51.464;-2.566;2022-11-20T07:28:18;7.50;99.90
7676;DHT22;3880;51.464;-2.566;2022-11-20T07:30:50;7.50;99.90
7676;DHT22;3880;51.464;-2.566;2022-11-20T07:33:17;7.50;99.90
7676;DHT22;3880;51.464;-2.566;2022-11-20T07:35:44;7.50;99.90
7676;DHT22;3880;51.464;-2.566;2022-11-20T07:38:11;7.50;99.90
7676;DHT22;3880;51.464;-2.566;2022-11-20T07:40:38;7.50;99.90
7676;DHT22;3880;51.464;-2.566;2022-11-20T07:43:05;7.60;99.90
7676;DHT22;3880;51.464;-2.566;2022-11-20T07:45:34;7.60;99.90
7676;DHT22;3880;51.464;-2.566;2022-11-20T07:48:01;7.60;99.90
7676;DHT22;3880;51.464;-2.566;2022-11-20T07:50:28;7.60;99.90
7676;DHT22;3880;51.464;-2.566;2022-11-20T07:53:01;7.60;99.90
7676;DHT22;3880;51.464;-2.566;2022-11-20T07:55:28;7.60;99.90
7676;DHT22;3880;51.464;-2.566;2022-11-20T07:57:55;7.60;99.90
7676;DHT22;3880;51.464;-2.566;2022-11-20T08:00:23;7.60;99.90
7676;DHT22;3880;51.464;-2.566;2022-11-20T08:02:52;7.60;99.90
7676;DHT22;3880;51.464;-2.566;2022-11-20T08:05:20;7.50;99.90
7676;DHT22;3880;51.464;-2.566;2022-11-20T08:07:47;7.40;99.90
7676;DHT22;3880;51.464;-2.566;2022-11-20T08:10:15;7.40;99.90
7676;DHT22;3880;51.464;-2.566;2022-11-20T08:12:46;7.40;99.90
7676;DHT22;3880;51.464;-2.566;2022-11-20T08:15:32;7.40;99.90
7676;DHT22;3880;51.464;-2.566;2022-11-20T08:18:02;7.40;99.90
7676;DHT22;3880;51.464;-2.566;2022-11-20T08:20:29;7.20;99.90
7676;DHT22;3880;51.464;-2.566;2022-11-20T08:23:00;7.20;99.90
7676;DHT22;3880;51.464;-2.566;2022-11-20T08:25:27;7.20;99.90
7676;DHT22;3880;51.464;-2.566;2022-11-20T08:27:57;7.20;99.90
7676;DHT22;3880;51.464;-2.566;2022-11-20T08:30:24;7.20;99.90
7676;DHT22;3880;51.464;-2.566;2022-11-20T08:32:51;7.30;99.90
7676;DHT22;3880;51.464;-2.566;2022-11-20T08:35:20;7.40;99.90
7676;DHT22;3880;51.464;-2.566;2022-11-20T08:37:47;7.30;99.90
7676;DHT22;3880;51.464;-2.566;2022-11-20T08:40:14;7.40;99.90
7676;DHT22;3880;51.464;-2.566;2022-11-20T08:42:46;7.40;99.90
7676;DHT22;3880;51.464;-2.566;2022-11-20T08:45:14;7.30;99.90
7676;DHT22;3880;51.464;-2.566;2022-11-20T08:47:41;7.30;99.90
7676;DHT22;3880;51.464;-2.566;2022-11-20T08:50:09;7.30;99.90
7676;DHT22;3880;51.464;-2.566;2022-11-20T08:52:38;7.40;99.90
7676;DHT22;3880;51.464;-2.566;2022-11-20T08:55:06;7.60;99.90
7676;DHT22;3880;51.464;-2.566;2022-11-20T08:57:33;7.60;99.90
7676;DHT22;3880;51.464;-2.566;2022-11-20T09:00:00;7.60;99.90
7676;DHT22;3880;51.464;-2.566;2022-11-20T09:02:27;7.80;99.90
7676;DHT22;3880;51.464;-2.566;2022-11-20T09:04:54;7.90;99.90
7676;DHT22;3880;51.464;-2.566;2022-11-20T09:07:21;8.00;99.90
7676;DHT22;3880;51.464;-2.566;2022-11-20T09:09:50;8.00;99.90
7676;DHT22;3880;51.464;-2.566;2022-11-20T09:12:17;7.90;99.90
7676;DHT22;3880;51.464;-2.566;2022-11-20T09:14:44;8.00;99.90
7676;DHT22;3880;51.464;-2.566;2022-11-20T09:17:12;8.10;99.90
7676;DHT22;3880;51.464;-2.566;2022-11-20T09:19:40;8.20;99.90
7676;DHT22;3880;51.464;-2.566;2022-11-20T09:22:07;8.30;99.90
7676;DHT22;3880;51.464;-2.566;2022-11-20T09:24:34;8.60;99.90
7676;DHT22;3880;51.464;-2.566;2022-11-20T09:27:04;9.00;99.90
7676;DHT22;3880;51.464;-2.566;2022-11-20T09:29:31;9.30;99.90
7676;DHT22;3880;51.464;-2.566;2022-11-20T09:31:58;9.30;99.90
7676;DHT22;3880;51.464;-2.566;2022-11-20T09:34:25;9.20;99.90
7676;DHT22;3880;51.464;-2.566;2022-11-20T09:36:52;9.20;99.90
7676;DHT22;3880;51.464;-2.566;2022-11-20T09:39:19;9.10;99.90
7676;DHT22;3880;51.464;-2.566;2022-11-20T09:42:01;9.20;99.90
7676;DHT22;3880;51.464;-2.566;2022-11-20T09:44:53;9.40;99.90
7676;DHT22;3880;51.464;-2.566;2022-11-20T09:47:32;9.80;99.90
7676;DHT22;3880;51.464;-2.566;2022-11-20T09:50:12;10.00;99.90
7676;DHT22;3880;51.464;-2.566;2022-11-20T09:52:54;10.10;99.90
7676;DHT22;3880;51.464;-2.566;2022-11-20T09:55:25;10.50;99.90
7676;DHT22;3880;51.464;-2.566;2022-11-20T09:57:54;10.70;99.90
7676;DHT22;3880;51.464;-2.566;2022-11-20T10:00:24;11.10;99.90
7676;DHT22;3880;51.464;-2.566;2022-11-20T10:02:55;12.30;99.90
7676;DHT22;3880;51.464;-2.566;2022-11-20T10:05:25;13.60;99.90
7676;DHT22;3880;51.464;-2.566;2022-11-20T10:08:01;14.70;99.90
7676;DHT22;3880;51.464;-2.566;2022-11-20T10:10:33;15.70;99.90
7676;DHT22;3880;51.464;-2.566;2022-11-20T10:13:17;16.50;99.90
7676;DHT22;3880;51.464;-2.566;2022-11-20T10:15:57;17.40;99.90
7676;DHT22;3880;51.464;-2.566;2022-11-20T10:18:42;17.90;99.90
7676;DHT22;3880;51.464;-2.566;2022-11-20T10:21:18;18.40;99.90
7676;DHT22;3880;51.464;-2.566;2022-11-20T10:26:49;19.00;99.90
7676;DHT22;3880;51.464;-2.566;2022-11-20T10:29:17;19.70;99.90
7676;DHT22;3880;51.464;-2.566;2022-11-20T10:31:50;20.60;99.90
7676;DHT22;3880;51.464;-2.566;2022-11-20T10:34:23;20.60;99.90
7676;DHT22;3880;51.464;-2.566;2022-11-20T10:36:57;21.00;99.90
7676;DHT22;3880;51.464;-2.566;2022-11-20T10:39:33;21.30;99.90
7676;DHT22;3880;51.464;-2.566;2022-11-20T10:42:02;21.80;99.90
7676;DHT22;3880;51.464;-2.566;2022-11-20T10:44:31;22.00;99.90
7676;DHT22;3880;51.464;-2.566;2022-11-20T10:47:18;22.50;99.90
7676;DHT22;3880;51.464;-2.566;2022-11-20T10:49:49;22.60;99.90
7676;DHT22;3880;51.464;-2.566;2022-11-20T10:52:23;22.40;99.90
7676;DHT22;3880;51.464;-2.566;2022-11-20T10:55:01;21.40;99.90
7676;DHT22;3880;51.464;-2.566;2022-11-20T10:57:46;20.90;99.90
7676;DHT22;3880;51.464;-2.566;2022-11-20T11:00:15;20.90;99.90
7676;DHT22;3880;51.464;-2.566;2022-11-20T11:02:47;21.00;99.90
7676;DHT22;3880;51.464;-2.566;2022-11-20T11:05:25;20.60;99.90
7676;DHT22;3880;51.464;-2.566;2022-11-20T11:07:55;20.20;99.90
7676;DHT22;3880;51.464;-2.566;2022-11-20T11:10:26;20.00;99.90
7676;DHT22;3880;51.464;-2.566;2022-11-20T11:12:54;20.40;99.90
7676;DHT22;3880;51.464;-2.566;2022-11-20T11:15:26;20.40;99.90
7676;DHT22;3880;51.464;-2.566;2022-11-20T11:17:55;19.90;99.90
7676;DHT22;3880;51.464;-2.566;2022-11-20T11:20:23;19.70;99.90
7676;DHT22;3880;51.464;-2.566;2022-11-20T11:22:52;19.00;99.90
7676;DHT22;3880;51.464;-2.566;2022-11-20T11:25:26;18.70;99.90
7676;DHT22;3880;51.464;-2.566;2022-11-20T11:27:55;18.70;99.90
7676;DHT22;3880;51.464;-2.566;2022-11-20T11:30:24;19.50;99.90
7676;DHT22;3880;51.464;-2.566;2022-11-20T11:33:04;19.50;99.90
7676;DHT22;3880;51.464;-2.566;2022-11-20T11:35:32;20.20;99.90
7676;DHT22;3880;51.464;-2.566;2022-11-20T11:38:04;19.70;99.90
7676;DHT22;3880;51.464;-2.566;2022-11-20T11:40:35;20.00;99.90
7676;DHT22;3880;51.464;-2.566;2022-11-20T11:43:05;19.80;99.90
7676;DHT22;3880;51.464;-2.566;2022-11-20T11:45:54;19.50;99.90
7676;DHT22;3880;51.464;-2.566;2022-11-20T11:48:22;18.60;99.90
7676;DHT22;3880;51.464;-2.566;2022-11-20T11:50:49;18.00;99.90
7676;DHT22;3880;51.464;-2.566;2022-11-20T11:53:18;18.10;99.90
7676;DHT22;3880;51.464;-2.566;2022-11-20T11:55:49;17.30;99.90
7676;DHT22;3880;51.464;-2.566;2022-11-20T11:58:33;16.80;99.90
7676;DHT22;3880;51.464;-2.566;2022-11-20T12:01:17;16.20;99.90
7676;DHT22;3880;51.464;-2.566;2022-11-20T12:03:54;15.50;99.90
7676;DHT22;3880;51.464;-2.566;2022-11-20T12:06:23;14.40;99.90
7676;DHT22;3880;51.464;-2.566;2022-11-20T12:08:55;13.80;99.90
7676;DHT22;3880;51.464;-2.566;2022-11-20T12:11:30;13.60;99.90
7676;DHT22;3880;51.464;-2.566;2022-11-20T12:14:04;13.50;99.90
7676;DHT22;3880;51.464;-2.566;2022-11-20T12:16:37;12.80;99.90
7676;DHT22;3880;51.464;-2.566;2022-11-20T12:19:11;12.20;99.90
7676;DHT22;3880;51.464;-2.566;2022-11-20T12:21:52;11.80;99.90
7676;DHT22;3880;51.464;-2.566;2022-11-20T12:24:36;11.40;99.90
7676;DHT22;3880;51.464;-2.566;2022-11-20T12:27:37;11.00;99.90
7676;DHT22;3880;51.464;-2.566;2022-11-20T12:30:08;10.80;99.90
7676;DHT22;3880;51.464;-2.566;2022-11-20T12:32:57;10.80;99.90
7676;DHT22;3880;51.464;-2.566;2022-11-20T12:35:44;10.80;99.90
7676;DHT22;3880;51.464;-2.566;2022-11-20T12:38:34;10.80;99.90
7676;DHT22;3880;51.464;-2.566;2022-11-20T12:41:10;10.70;99.90
7676;DHT22;3880;51.464;-2.566;2022-11-20T12:44:06;10.60;99.90
7676;DHT22;3880;51.464;-2.566;2022-11-20T12:47:06;10.70;99.90
7676;DHT22;3880;51.464;-2.566;2022-11-20T12:49:39;10.70;99.90
7676;DHT22;3880;51.464;-2.566;2022-11-20T12:52:25;10.70;99.90
7676;DHT22;3880;51.464;-2.566;2022-11-20T12:55:16;10.80;99.90
7676;DHT22;3880;51.464;-2.566;2022-11-20T12:57:53;11.00;99.90
7676;DHT22;3880;51.464;-2.566;2022-11-20T13:00:22;11.30;99.90
7676;DHT22;3880;51.464;-2.566;2022-11-20T13:03:16;11.40;99.90
7676;DHT22;3880;51.464;-2.566;2022-11-20T13:06:01;11.50;99.90
7676;DHT22;3880;51.464;-2.566;2022-11-20T13:08:36;11.70;99.90
7676;DHT22;3880;51.464;-2.566;2022-11-20T13:11:09;11.70;99.90
7676;DHT22;3880;51.464;-2.566;2022-11-20T13:13:47;11.70;99.90
7676;DHT22;3880;51.464;-2.566;2022-11-20T13:16:19;11.80;99.90
7676;DHT22;3880;51.464;-2.566;2022-11-20T13:18:49;11.60;99.90
7676;DHT22;3880;51.464;-2.566;2022-11-20T13:21:18;11.60;99.90
7676;DHT22;3880;51.464;-2.566;2022-11-20T13:23:47;11.60;99.90
7676;DHT22;3880;51.464;-2.566;2022-11-20T13:26:19;11.60;99.90
7676;DHT22;3880;51.464;-2.566;2022-11-20T13:28:59;11.80;99.90
7676;DHT22;3880;51.464;-2.566;2022-11-20T13:31:31;11.80;99.90
7676;DHT22;3880;51.464;-2.566;2022-11-20T13:34:00;11.90;99.90
7676;DHT22;3880;51.464;-2.566;2022-11-20T13:36:29;11.90;99.90
7676;DHT22;3880;51.464;-2.566;2022-11-20T13:38:59;11.80;99.90
7676;DHT22;3880;51.464;-2.566;2022-11-20T13:41:28;11.70;99.90
7676;DHT22;3880;51.464;-2.566;2022-11-20T13:43:59;11.60;99.90
7676;DHT22;3880;51.464;-2.566;2022-11-20T13:46:39;11.20;99.90
7676;DHT22;3880;51.464;-2.566;2022-11-20T13:49:16;11.00;99.90
7676;DHT22;3880;51.464;-2.566;2022-11-20T13:51:46;10.80;99.90
7676;DHT22;3880;51.464;-2.566;2022-11-20T14:00:22;10.60;99.90
7676;DHT22;3880;51.464;-2.566;2022-11-20T14:02:59;10.50;99.90
7676;DHT22;3880;51.464;-2.566;2022-11-20T14:05:28;10.60;99.90
7676;DHT22;3880;51.464;-2.566;2022-11-20T14:07:59;10.60;99.90
7676;DHT22;3880;51.464;-2.566;2022-11-20T14:10:31;10.50;99.90
7676;DHT22;3880;51.464;-2.566;2022-11-20T14:12:58;10.50;99.90
7676;DHT22;3880;51.464;-2.566;2022-11-20T14:15:36;10.30;99.90
7676;DHT22;3880;51.464;-2.566;2022-11-20T14:18:13;10.10;99.90
7676;DHT22;3880;51.464;-2.566;2022-11-20T14:20:41;10.10;99.90
7676;DHT22;3880;51.464;-2.566;2022-11-20T14:23:10;10.00;99.90
7676;DHT22;3880;51.464;-2.566;2022-11-20T14:25:42;10.00;99.90
7676;DHT22;3880;51.464;-2.566;2022-11-20T14:28:17;9.90;99.90
7676;DHT22;3880;51.464;-2.566;2022-11-20T14:30:48;10.00;99.90
7676;DHT22;3880;51.464;-2.566;2022-11-20T14:33:16;9.90;99.90
7676;DHT22;3880;51.464;-2.566;2022-11-20T14:35:46;10.00;99.90
7676;DHT22;3880;51.464;-2.566;2022-11-20T14:38:16;10.00;99.90
7676;DHT22;3880;51.464;-2.566;2022-11-20T14:40:45;10.10;99.90
7676;DHT22;3880;51.464;-2.566;2022-11-20T14:43:18;10.00;99.90
7676;DHT22;3880;51.464;-2.566;2022-11-20T14:45:55;10.10;99.90
7676;DHT22;3880;51.464;-2.566;2022-11-20T14:48:29;10.00;99.90
7676;DHT22;3880;51.464;-2.566;2022-11-20T14:50:56;10.00;99.90
7676;DHT22;3880;51.464;-2.566;2022-11-20T14:53:24;10.00;99.90
7676;DHT22;3880;51.464;-2.566;2022-11-20T14:56:00;10.10;99.90
7676;DHT22;3880;51.464;-2.566;2022-11-20T14:58:29;10.10;99.90
7676;DHT22;3880;51.464;-2.566;2022-11-20T15:00:59;10.20;99.90
7676;DHT22;3880;51.464;-2.566;2022-11-20T15:03:33;10.20;99.90
7676;DHT22;3880;51.464;-2.566;2022-11-20T15:06:01;10.30;99.90
7676;DHT22;3880;51.464;-2.566;2022-11-20T15:08:28;10.40;99.90
7676;DHT22;3880;51.464;-2.566;2022-11-20T15:10:57;10.50;99.90
7676;DHT22;3880;51.464;-2.566;2022-11-20T15:13:29;10.60;99.90
7676;DHT22;3880;51.464;-2.566;2022-11-20T15:15:57;10.60;99.90
7676;DHT22;3880;51.464;-2.566;2022-11-20T15:18:28;10.50;99.90
7676;DHT22;3880;51.464;-2.566;2022-11-20T15:20:58;10.50;99.90
7676;DHT22;3880;51.464;-2.566;2022-11-20T15:23:27;10.40;99.90
7676;DHT22;3880;51.464;-2.566;2022-11-20T15:25:56;10.40;99.90
7676;DHT22;3880;51.464;-2.566;2022-11-20T15:28:29;10.40;99.90
7676;DHT22;3880;51.464;-2.566;2022-11-20T15:30:57;10.40;99.90
7676;DHT22;3880;51.464;-2.566;2022-11-20T15:33:24;10.40;99.90
7676;DHT22;3880;51.464;-2.566;2022-11-20T15:35:51;10.40;99.90
7676;DHT22;3880;51.464;-2.566;2022-11-20T15:38:18;10.40;99.90
7676;DHT22;3880;51.464;-2.566;2022-11-20T15:40:45;10.40;99.90
7676;DHT22;3880;51.464;-2.566;2022-11-20T15:43:13;10.30;99.90
7676;DHT22;3880;51.464;-2.566;2022-11-20T15:45:43;10.30;99.90
7676;DHT22;3880;51.464;-2.566;2022-11-20T15:48:14;10.30;99.90
7676;DHT22;3880;51.464;-2.566;2022-11-20T15:50:49;10.20;99.90
7676;DHT22;3880;51.464;-2.566;2022-11-20T15:53:18;10.10;99.90
7676;DHT22;3880;51.464;-2.566;2022-11-20T15:55:45;10.10;99.90
7676;DHT22;3880;51.464;-2.566;2022-11-20T15:58:13;10.10;99.90
7676;DHT22;3880;51.464;-2.566;2022-11-20T16:00:42;10.00;99.90
7676;DHT22;3880;51.464;-2.566;2022-11-20T16:03:11;10.00;99.90
7676;DHT22;3880;51.464;-2.566;2022-11-20T16:05:38;9.90;99.90
7676;DHT22;3880;51.464;-2.566;2022-11-20T16:08:05;9.90;99.90
7676;DHT22;3880;51.464;-2.566;2022-11-20T16:10:32;9.80;99.90
7676;DHT22;3880;51.464;-2.566;2022-11-20T16:12:59;9.80;99.90
7676;DHT22;3880;51.464;-2.566;2022-11-20T16:15:47;9.80;99.90
7676;DHT22;3880;51.464;-2.566;2022-11-20T16:18:18;9.70;99.90
7676;DHT22;3880;51.464;-2.566;2022-11-20T16:20:46;9.70;99.90
7676;DHT22;3880;51.464;-2.566;2022-11-20T16:23:14;9.70;99.90
7676;DHT22;3880;51.464;-2.566;2022-11-20T16:25:41;9.70;99.90